Time;durP1;ratioP1;P1;durP2;ratioP2;P2;SDS_P1;SDS_P2;PMS_P1;PMS_P2;Temp;Humidity;BMP_temperature;BMP_pressure;BME280_temperature;BME280_humidity;BME280_pressure;Samples;Min_cycle;Max_cycle;Signal;HPM_P1;HPM_P2
2023/05/01 00:01:56;;;;;;;0.70;0.70;;;;;;;9.64;64.38;99886.09;5114420;28;20043;-65
2023/05/01 00:04:25;;;;;;;0.77;0.77;;;;;;;9.66;64.49;99894.59;5114374;28;20050;-67
2023/05/01 00:06:54;;;;;;;0.70;0.68;;;;;;;9.65;64.27;99897.97;5113376;28;20073;-66
2023/05/01 00:09:23;;;;;;;0.95;0.85;;;;;;;9.65;64.77;99893.72;5114260;28;20080;-64
2023/05/01 00:11:52;;;;;;;1.42;1.33;;;;;;;9.59;64.17;99892.84;5114382;28;20062;-65
2023/05/01 00:14:22;;;;;;;0.77;0.68;;;;;;;9.63;64.54;99889.47;5114293;28;20069;-66
2023/05/01 00:16:51;;;;;;;1.75;0.73;;;;;;;9.63;64.21;99894.56;5114502;28;20082;-66
2023/05/01 00:19:20;;;;;;;0.40;0.40;;;;;;;9.61;64.63;99886.91;5114149;28;20047;-67
2023/05/01 00:21:51;;;;;;;0.60;0.60;;;;;;;9.61;64.28;99888.59;5114166;28;20038;-66
2023/05/01 00:24:20;;;;;;;33.50;1.15;;;;;;;9.67;64.24;99886.13;5114123;28;20039;-67
2023/05/01 00:26:49;;;;;;;0.50;0.50;;;;;;;9.65;64.33;99883.53;5113295;28;20032;-66
2023/05/01 00:29:18;;;;;;;0.80;0.80;;;;;;;9.66;64.36;99886.94;5114332;28;20036;-66
2023/05/01 00:31:48;;;;;;;0.57;0.57;;;;;;;9.65;64.27;99882.69;5112951;28;20126;-67
2023/05/01 00:34:17;;;;;;;1.10;1.00;;;;;;;9.67;64.17;99886.94;5114187;28;20375;-66
2023/05/01 00:36:46;;;;;;;0.47;0.47;;;;;;;9.64;63.32;99886.09;5113856;28;20092;-66
2023/05/01 00:39:17;;;;;;;1.38;1.27;;;;;;;9.71;63.32;99883.59;5112780;28;20052;-65
2023/05/01 00:41:46;;;;;;;1.30;0.93;;;;;;;9.73;62.80;99878.47;5114186;28;20039;-66
2023/05/01 00:44:15;;;;;;;1.37;1.27;;;;;;;9.72;63.06;99879.31;5114210;28;20130;-68
2023/05/01 00:46:44;;;;;;;0.45;0.45;;;;;;;9.69;62.62;99881.88;5112662;28;20272;-66
2023/05/01 00:49:14;;;;;;;2.83;1.40;;;;;;;9.69;63.31;99880.19;5113842;28;20043;-65
2023/05/01 00:51:48;;;;;;;0.98;0.70;;;;;;;9.76;62.53;99881.91;5113821;28;20055;-68
2023/05/01 00:54:18;;;;;;;0.85;0.80;;;;;;;9.80;62.40;99882.78;5113848;28;20079;-68
2023/05/01 00:56:48;;;;;;;0.85;0.85;;;;;;;9.75;62.17;99885.28;5112988;28;20070;-66
2023/05/01 00:59:17;;;;;;;;;;;;;;;9.80;62.64;99882.78;5114203;28;20078;-66
2023/05/01 01:01:46;;;;;;;0.70;0.70;;;;;;;9.82;62.54;99881.94;5113782;28;19919;-66
2023/05/01 01:04:16;;;;;;;0.83;0.83;;;;;;;9.81;61.73;99884.50;5112641;28;20047;-66
2023/05/01 01:06:54;;;;;;;0.65;0.65;;;;;;;9.76;62.44;99891.25;5112573;28;20050;-66
2023/05/01 01:09:38;;;;;;;0.40;0.40;;;;;;;9.72;62.14;99889.50;5114529;28;20043;-66
2023/05/01 01:12:16;;;;;;;5.13;2.00;;;;;;;9.70;63.09;99886.97;5113465;28;20043;-67
2023/05/01 01:14:51;;;;;;;0.70;0.70;;;;;;;9.70;62.90;99886.09;5114000;28;20625;-67
2023/05/01 01:17:29;;;;;;;0.70;0.70;;;;;;;9.60;62.88;99884.38;5112473;28;20051;-68
2023/05/01 01:20:27;;;;;;;1.40;1.30;;;;;;;9.47;63.33;99873.25;5114002;28;20378;-67
2023/05/01 01:23:13;;;;;;;0.75;0.75;;;;;;;9.52;62.60;99881.75;5112448;28;20138;-66
2023/05/01 01:26:06;;;;;;;0.60;0.60;;;;;;;9.51;63.56;99884.28;5113509;28;20127;-67
2023/05/01 01:28:57;;;;;;;0.47;0.47;;;;;;;9.49;63.35;99891.06;5112333;28;20489;-67
2023/05/01 01:31:34;;;;;;;0.32;0.32;;;;;;;9.49;64.09;99880.88;5112229;28;20126;-68
2023/05/01 01:34:13;;;;;;;2.30;1.48;;;;;;;9.45;63.85;99888.50;5112372;28;20048;-68
2023/05/01 01:36:49;;;;;;;0.60;0.60;;;;;;;9.41;64.47;99884.22;5112556;28;20062;-66
2023/05/01 01:39:36;;;;;;;0.70;0.70;;;;;;;9.37;64.23;99885.06;5113664;28;20043;-67
2023/05/01 01:42:10;;;;;;;0.50;0.50;;;;;;;9.19;64.12;99877.25;5113315;28;20043;-67
2023/05/01 01:44:42;;;;;;;0.57;0.57;;;;;;;9.12;65.01;99888.25;5112479;28;20044;-67
2023/05/01 01:47:14;;;;;;;0.30;0.30;;;;;;;9.12;64.63;99895.03;5114187;28;20053;-67
2023/05/01 01:49:50;;;;;;;1.02;0.93;;;;;;;8.99;64.68;99881.34;5115793;28;20047;-66
2023/05/01 01:52:22;;;;;;;1.08;0.90;;;;;;;9.00;65.97;99903.41;5115983;28;20398;-66
2023/05/01 01:54:54;;;;;;;0.68;0.68;;;;;;;8.91;65.22;99898.25;5116792;27;20075;-67
2023/05/01 01:57:25;;;;;;;0.50;0.50;;;;;;;8.89;65.27;99892.28;5117177;28;20056;-67
2023/05/01 01:59:56;;;;;;;0.73;0.73;;;;;;;8.88;65.76;99890.56;5115464;28;20127;-66
2023/05/01 02:02:28;;;;;;;1.48;0.85;;;;;;;8.89;66.32;99899.06;5115539;28;20047;-67
2023/05/01 02:05:00;;;;;;;1.40;0.82;;;;;;;8.78;66.04;99886.25;5116748;28;20040;-67
2023/05/01 02:07:29;;;;;;;0.73;0.73;;;;;;;8.73;65.46;99880.25;5115574;28;20055;-67
2023/05/01 02:09:59;;;;;;;1.33;1.17;;;;;;;8.76;66.09;99895.53;5116884;28;20035;-67
2023/05/01 02:12:27;;;;;;;;;;;;;;;8.72;65.73;99899.75;5075049;28;20033;-67
2023/05/01 02:15:00;;;;;;;0.65;0.65;;;;;;;8.70;66.10;99895.50;5075888;28;19921;-67
2023/05/01 02:17:31;;;;;;;0.52;0.50;;;;;;;8.61;66.18;99890.31;5075940;28;20044;-68
2023/05/01 02:20:02;;;;;;;0.30;0.30;;;;;;;8.62;66.28;99902.19;5076209;28;20049;-67
2023/05/01 02:22:32;;;;;;;1.45;1.05;;;;;;;8.60;65.83;99901.31;5074898;28;20048;-68
2023/05/01 02:25:02;;;;;;;;;;;;;;;8.59;66.25;99897.09;5075181;28;20055;-69
2023/05/01 02:27:32;;;;;;;;;;;;;;;8.56;66.32;99894.50;5076452;28;19927;-67
2023/05/01 02:30:01;;;;;;;1.75;0.90;;;;;;;8.53;66.66;99897.00;5075900;28;19920;-66
2023/05/01 02:32:31;;;;;;;2.70;1.50;;;;;;;8.51;66.65;99899.53;5074682;28;20048;-66
2023/05/01 02:35:01;;;;;;;0.40;0.40;;;;;;;8.52;66.43;99890.19;5075705;28;20049;-68
2023/05/01 02:37:31;;;;;;;2.97;0.95;;;;;;;8.54;67.22;99896.19;5074376;28;20445;-67
2023/05/01 02:40:00;;;;;;;0.70;0.70;;;;;;;8.53;66.70;99895.31;5074267;28;20083;-66
2023/05/01 02:42:30;;;;;;;0.65;0.65;;;;;;;8.53;66.18;99890.22;5074480;28;20052;-68
2023/05/01 02:45:02;;;;;;;1.75;1.02;;;;;;;8.60;66.39;99893.69;5075218;28;20102;-66
2023/05/01 02:47:35;;;;;;;0.50;0.50;;;;;;;8.61;66.04;99890.31;5075680;28;20047;-66
2023/05/01 02:50:08;;;;;;;1.65;1.42;;;;;;;8.62;65.81;99897.09;5075223;28;20498;-66
2023/05/01 02:52:38;;;;;;;0.70;0.70;;;;;;;8.67;65.98;99895.44;5074105;28;20518;-66
2023/05/01 02:55:18;;;;;;;0.90;0.60;;;;;;;8.67;65.22;99891.22;5074946;28;20041;-66
2023/05/01 02:57:47;;;;;;;0.75;0.73;;;;;;;8.68;65.62;99892.09;5074050;28;20556;-68
2023/05/01 03:00:16;;;;;;;0.57;0.57;;;;;;;8.71;65.67;99892.09;5074966;28;20060;-68
2023/05/01 03:02:46;;;;;;;5.73;0.77;;;;;;;8.73;65.10;99893.00;5074157;28;20368;-67
2023/05/01 03:05:18;;;;;;;0.40;0.40;;;;;;;8.77;65.55;99892.16;5073667;28;20056;-66
2023/05/01 03:07:50;;;;;;;0.50;0.50;;;;;;;8.80;65.16;99886.25;5075175;28;20076;-67
2023/05/01 03:10:19;;;;;;;0.63;0.63;;;;;;;8.85;64.94;99890.56;5079244;28;20068;-67
2023/05/01 03:12:48;;;;;;;;;;;;;;;8.86;64.94;99888.84;5114614;28;20051;-66
2023/05/01 03:15:17;;;;;;;0.93;0.88;;;;;;;8.87;65.21;99888.88;5115151;28;19962;-67
2023/05/01 03:17:46;;;;;;;3.92;1.27;;;;;;;8.88;65.41;99887.19;5114382;28;20066;-67
2023/05/01 03:20:15;;;;;;;1.17;1.10;;;;;;;8.92;65.06;99891.47;5113982;28;20035;-66
2023/05/01 03:22:45;;;;;;;0.47;0.47;;;;;;;8.88;65.00;99885.47;5115149;28;20040;-67
2023/05/01 03:25:14;;;;;;;0.40;0.40;;;;;;;8.95;65.21;99894.88;5114226;28;20493;-67
2023/05/01 03:27:43;;;;;;;0.50;0.50;;;;;;;8.94;65.73;99890.63;5115375;28;20398;-68
2023/05/01 03:30:12;;;;;;;0.90;0.68;;;;;;;9.01;66.33;99896.63;5115274;27;20393;-66
2023/05/01 03:32:43;;;;;;;0.47;0.47;;;;;;;9.04;66.33;99897.53;5115026;28;20097;-67
2023/05/01 03:35:20;;;;;;;0.47;0.47;;;;;;;9.01;66.46;99897.50;5114695;28;20044;-67
2023/05/01 03:37:51;;;;;;;1.13;0.60;;;;;;;8.86;66.17;99874.44;5114873;28;20044;-67
2023/05/01 03:40:46;;;;;;;0.30;0.30;;;;;;;8.90;66.62;99891.44;5114935;28;20039;-67
2023/05/01 03:43:26;;;;;;;0.70;0.70;;;;;;;8.92;66.45;99887.22;5114800;28;20050;-67
2023/05/01 03:45:59;;;;;;;3.08;1.25;;;;;;;8.95;66.95;99892.31;5113582;28;20043;-66
2023/05/01 03:48:28;;;;;;;1.43;1.33;;;;;;;9.01;66.42;99892.41;5114623;28;20126;-67
2023/05/01 03:50:57;;;;;;;0.57;0.57;;;;;;;8.98;66.16;99891.50;5114610;28;20058;-68
2023/05/01 03:53:27;;;;;;;1.70;0.97;;;;;;;9.00;67.16;99890.69;5113688;28;20043;-66
2023/05/01 03:55:57;;;;;;;0.47;0.47;;;;;;;8.95;67.08;99892.31;5113277;28;20398;-67
2023/05/01 03:58:25;;;;;;;0.25;0.25;;;;;;;8.92;67.57;99886.38;5113519;28;20518;-66
2023/05/01 04:00:55;;;;;;;1.00;0.77;;;;;;;8.90;67.10;99883.78;5113249;28;20039;-67
2023/05/01 04:03:24;;;;;;;0.50;0.50;;;;;;;8.92;66.84;99887.22;5113350;28;20043;-67
2023/05/01 04:05:54;;;;;;;0.50;0.50;;;;;;;8.91;66.76;99890.59;5114702;28;20047;-67
2023/05/01 04:08:24;;;;;;;1.05;0.95;;;;;;;8.89;66.95;99894.84;5113483;28;20048;-67
2023/05/01 04:10:55;;;;;;;0.45;0.45;;;;;;;8.83;66.66;99902.38;5113315;28;20047;-66
2023/05/01 04:13:23;;;;;;;0.70;0.70;;;;;;;8.83;67.11;99886.28;5113068;28;20508;-67
2023/05/01 04:15:54;;;;;;;0.60;0.60;;;;;;;8.88;67.16;99888.03;5112955;28;20127;-67
2023/05/01 04:18:24;;;;;;;0.52;0.52;;;;;;;8.89;67.41;99897.38;5114566;28;20093;-67
2023/05/01 04:20:59;;;;;;;1.63;1.13;;;;;;;8.90;66.74;99888.06;5114134;28;20067;-67
2023/05/01 04:23:28;;;;;;;0.93;0.93;;;;;;;8.69;67.28;99864.09;5113305;28;20031;-67
2023/05/01 04:26:01;;;;;;;0.30;0.30;;;;;;;8.93;67.35;99894.00;5114785;28;20059;-66
2023/05/01 04:28:29;;;;;;;0.65;0.65;;;;;;;8.97;67.43;99895.78;5112922;28;20120;-66
2023/05/01 04:30:58;;;;;;;0.60;0.60;;;;;;;9.04;67.52;99892.44;5114007;28;20050;-67
2023/05/01 04:33:27;;;;;;;0.40;0.40;;;;;;;9.08;67.61;99899.25;5114020;28;20040;-66
2023/05/01 04:35:56;;;;;;;0.63;0.60;;;;;;;9.13;67.29;99907.78;5113935;28;20042;-67
2023/05/01 04:38:25;;;;;;;0.57;0.57;;;;;;;9.19;68.12;99907.81;5113972;28;20276;-68
2023/05/01 04:40:57;;;;;;;1.55;1.35;;;;;;;9.20;67.62;99912.09;5113963;28;20044;-69
2023/05/01 04:43:28;;;;;;;0.90;0.90;;;;;;;9.31;67.22;99913.00;5114271;28;20036;-67
2023/05/01 04:45:56;;;;;;;1.13;1.05;;;;;;;9.39;67.24;99916.47;5113927;28;20067;-69
2023/05/01 04:48:25;;;;;;;1.03;0.97;;;;;;;9.38;66.97;99909.66;5112978;28;20064;-68
2023/05/01 04:50:55;;;;;;;0.35;0.35;;;;;;;9.44;67.81;99904.63;5112630;28;20048;-67
2023/05/01 04:53:28;;;;;;;0.90;0.85;;;;;;;9.56;67.73;99908.09;5114255;28;20481;-67
2023/05/01 04:55:58;;;;;;;1.35;1.17;;;;;;;9.66;67.63;99920.06;5114107;28;20367;-69
2023/05/01 04:58:29;;;;;;;0.68;0.68;;;;;;;9.79;66.80;99916.78;5113767;28;20052;-68
2023/05/01 05:01:07;;;;;;;2.15;0.88;;;;;;;9.90;66.83;99910.03;5112528;28;20043;-67
2023/05/01 05:03:36;;;;;;;1.40;1.30;;;;;;;9.97;65.82;99909.22;5112922;28;20046;-69
2023/05/01 05:06:06;;;;;;;1.75;1.13;;;;;;;10.06;66.21;99912.66;5112850;28;20050;-68
2023/05/01 05:08:36;;;;;;;0.65;0.65;;;;;;;10.11;65.46;99910.13;5114143;28;20070;-68
2023/05/01 05:11:09;;;;;;;3.50;0.82;;;;;;;10.16;65.80;99902.53;5113637;28;20047;-69
2023/05/01 05:13:48;;;;;;;1.38;1.20;;;;;;;10.20;65.39;99905.09;5114118;28;20130;-69
2023/05/01 05:16:17;;;;;;;1.45;1.38;;;;;;;10.33;65.41;99904.31;5112398;28;20067;-67
2023/05/01 05:18:47;;;;;;;0.75;0.75;;;;;;;10.43;64.88;99911.16;5113746;28;20122;-67
2023/05/01 05:21:17;;;;;;;2.38;1.33;;;;;;;10.56;64.64;99907.78;5114270;28;20055;-69
2023/05/01 05:23:51;;;;;;;0.85;0.85;;;;;;;10.72;64.28;99916.34;5118450;28;20478;-69
2023/05/01 05:26:20;;;;;;;0.70;0.70;;;;;;;10.84;63.29;99915.53;5116575;28;20039;-69
2023/05/01 05:28:51;;;;;;;;;;;;;;;11.05;62.75;99910.44;5116972;28;20395;-69
2023/05/01 05:31:20;;;;;;;0.73;0.73;;;;;;;11.24;61.59;99907.91;5116458;28;19920;-69
2023/05/01 05:33:49;;;;;;;0.45;0.45;;;;;;;11.45;60.90;99912.13;5116499;28;20398;-69
2023/05/01 05:36:18;;;;;;;0.68;0.68;;;;;;;11.60;60.23;99907.03;5117259;28;20061;-69
2023/05/01 05:38:48;;;;;;;0.93;0.90;;;;;;;11.73;59.69;99918.97;5116035;28;20077;-68
2023/05/01 05:41:19;;;;;;;0.98;0.95;;;;;;;11.92;59.12;99914.69;5116273;28;20433;-68
2023/05/01 05:43:53;;;;;;;0.70;0.70;;;;;;;12.01;58.50;99918.06;5117030;28;20101;-69
2023/05/01 05:46:22;;;;;;;0.90;0.90;;;;;;;12.04;58.37;99915.47;5115941;28;20043;-70
2023/05/01 05:48:50;;;;;;;0.60;0.60;;;;;;;12.16;58.22;99918.88;5116130;28;20047;-69
2023/05/01 05:51:20;;;;;;;0.80;0.80;;;;;;;12.27;57.82;99927.34;5117280;28;20048;-68
2023/05/01 05:53:49;;;;;;;0.75;0.73;;;;;;;12.35;57.28;99920.50;5115866;28;20066;-69
2023/05/01 05:56:18;;;;;;;0.40;0.40;;;;;;;12.47;56.87;99920.44;5115631;28;20031;-67
2023/05/01 05:58:48;;;;;;;0.63;0.63;;;;;;;12.59;56.51;99930.63;5115531;28;20481;-69
2023/05/01 06:01:18;;;;;;;1.33;1.23;;;;;;;12.63;55.85;99927.19;5115611;28;20058;-68
2023/05/01 06:03:48;;;;;;;0.40;0.40;;;;;;;12.76;55.21;99923.72;5116900;28;20063;-66
2023/05/01 06:06:17;;;;;;;1.60;1.30;;;;;;;12.93;54.77;99927.03;5115226;28;20124;-68
2023/05/01 06:08:46;;;;;;;0.77;0.77;;;;;;;13.06;54.32;99935.50;5115300;28;20035;-66
2023/05/01 06:11:15;;;;;;;0.95;0.85;;;;;;;13.23;53.72;99931.97;5115128;28;20139;-68
2023/05/01 06:13:44;;;;;;;0.77;0.77;;;;;;;13.33;53.26;99918.22;5116593;28;20489;-68
2023/05/01 06:16:13;;;;;;;0.50;0.50;;;;;;;13.50;53.08;99919.78;5115196;28;20455;-67
2023/05/01 06:18:44;;;;;;;;;;;;;;;13.53;52.95;99919.78;5115581;28;20040;-68
2023/05/01 06:21:13;;;;;;;0.40;0.40;;;;;;;13.68;52.92;99919.59;5096062;28;19927;-65
2023/05/01 06:23:44;;;;;;;0.50;0.50;;;;;;;13.65;52.92;99914.53;5095983;28;20136;-68
2023/05/01 06:26:25;;;;;;;1.58;0.85;;;;;;;13.71;52.72;99917.03;5096068;28;20050;-67
2023/05/01 06:28:54;;;;;;;1.02;0.95;;;;;;;13.78;52.49;99916.09;5094915;28;20603;-67
2023/05/01 06:31:23;;;;;;;2.20;0.95;;;;;;;13.78;52.46;99916.09;5096078;28;20131;-66
2023/05/01 06:33:57;;;;;;;2.20;1.23;;;;;;;13.76;52.68;99912.69;5094916;28;20043;-67
2023/05/01 06:36:33;;;;;;;0.65;0.65;;;;;;;13.84;53.28;99921.19;5096235;28;20381;-66
2023/05/01 06:39:03;;;;;;;0.60;0.60;;;;;;;13.93;52.80;99926.22;5095663;28;20125;-67
2023/05/01 06:41:33;;;;;;;0.40;0.40;;;;;;;14.05;52.90;99928.66;5095696;28;20051;-66
2023/05/01 06:44:02;;;;;;;0.50;0.50;;;;;;;14.13;52.82;99923.44;5095796;28;20412;-65
2023/05/01 06:46:31;;;;;;;1.23;0.98;;;;;;;14.22;52.61;99929.31;5095582;28;20044;-64
2023/05/01 06:49:01;;;;;;;0.50;0.50;;;;;;;14.27;51.66;99921.56;5095447;28;20067;-66
2023/05/01 06:51:30;;;;;;;0.60;0.57;;;;;;;14.40;51.85;99918.84;5094501;28;20058;-66
2023/05/01 06:53:59;;;;;;;1.10;1.00;;;;;;;14.59;51.74;99925.44;5095348;28;20052;-67
2023/05/01 06:56:28;;;;;;;1.10;1.10;;;;;;;14.78;51.67;99919.19;5095200;28;20040;-66
2023/05/01 06:58:57;;;;;;;0.47;0.47;;;;;;;14.85;51.29;99916.56;5094080;28;20687;-66
2023/05/01 07:01:26;;;;;;;1.08;0.93;;;;;;;14.88;51.20;99911.34;5093728;28;20032;-66
2023/05/01 07:03:55;;;;;;;0.73;0.73;;;;;;;14.84;50.69;99914.84;5095143;28;20194;-66
2023/05/01 07:06:26;;;;;;;2.15;1.15;;;;;;;14.90;50.31;99913.03;5100646;28;20042;-66
2023/05/01 07:08:55;;;;;;;2.42;1.77;;;;;;;14.97;50.28;99912.06;5105418;28;20036;-66
2023/05/01 07:11:25;;;;;;;1.30;1.20;;;;;;;15.10;50.32;99912.72;5102716;28;20097;-66
2023/05/01 07:13:54;;;;;;;0.70;0.70;;;;;;;15.12;49.55;99921.25;5103995;28;20070;-66
2023/05/01 07:16:23;;;;;;;4.55;1.90;;;;;;;15.33;50.41;99915.81;5103640;28;20044;-66
2023/05/01 07:18:52;;;;;;;1.15;1.05;;;;;;;15.50;50.56;99918.97;5097815;28;20047;-66
2023/05/01 07:21:21;;;;;;;0.70;0.65;;;;;;;15.65;49.88;99913.56;5095127;28;20036;-65
2023/05/01 07:23:51;;;;;;;1.05;0.95;;;;;;;15.79;49.60;99921.03;5094709;28;20036;-67
2023/05/01 07:26:20;;;;;;;6.95;1.83;;;;;;;15.94;49.25;99915.59;5094653;28;20493;-65
2023/05/01 07:28:49;;;;;;;0.70;0.70;;;;;;;16.08;49.47;99913.63;5095019;28;20048;-65
2023/05/01 07:31:18;;;;;;;1.13;1.02;;;;;;;16.03;48.54;99916.28;5094887;28;20486;-66
2023/05/01 07:33:47;;;;;;;1.37;0.93;;;;;;;16.14;48.68;99918.66;5094701;28;20040;-64
2023/05/01 07:36:20;;;;;;;0.70;0.70;;;;;;;16.20;47.62;99922.81;5094814;28;20074;-66
2023/05/01 07:38:51;;;;;;;0.60;0.60;;;;;;;16.33;47.81;99919.16;5094500;28;20094;-65
2023/05/01 07:41:20;;;;;;;0.93;0.85;;;;;;;16.46;48.24;99915.44;5094405;28;20048;-65
2023/05/01 07:43:49;;;;;;;1.08;0.98;;;;;;;16.47;47.97;99920.56;5094703;28;20059;-65
2023/05/01 07:46:17;;;;;;;0.90;0.85;;;;;;;16.55;47.61;99920.44;5094315;28;20068;-65
2023/05/01 07:48:47;;;;;;;1.02;0.93;;;;;;;16.80;47.92;99919.00;5094276;28;20127;-66
2023/05/01 07:51:17;;;;;;;1.70;1.10;;;;;;;16.96;47.54;99919.53;5094720;28;20451;-65
2023/05/01 07:53:47;;;;;;;0.85;0.80;;;;;;;16.96;46.34;99916.94;5094190;28;20056;-66
2023/05/01 07:56:17;;;;;;;0.50;0.50;;;;;;;16.82;46.67;99924.97;5094858;28;20079;-65
2023/05/01 07:58:46;;;;;;;0.70;0.70;;;;;;;16.86;46.84;99916.31;5092796;28;20043;-65
2023/05/01 08:01:15;;;;;;;0.63;0.63;;;;;;;16.85;47.09;99912.03;5094089;28;20070;-66
2023/05/01 08:03:44;;;;;;;1.10;1.00;;;;;;;16.86;47.64;99916.31;5094507;28;20105;-67
2023/05/01 08:06:16;;;;;;;0.68;0.68;;;;;;;17.09;48.56;99919.19;5094081;28;20067;-66
2023/05/01 08:08:44;;;;;;;0.68;0.68;;;;;;;16.90;47.60;99920.50;5094180;28;20498;-66
2023/05/01 08:11:13;;;;;;;0.70;0.70;;;;;;;16.78;47.78;99918.19;5093804;28;20044;-66
2023/05/01 08:13:44;;;;;;;2.37;1.53;;;;;;;16.71;47.75;99914.06;5093852;28;20036;-66
2023/05/01 08:16:14;;;;;;;0.90;0.90;;;;;;;16.82;48.06;99922.41;5094548;28;20383;-66
2023/05/01 08:18:43;;;;;;;1.15;1.05;;;;;;;16.92;47.17;99925.63;5093620;28;20036;-65
2023/05/01 08:21:12;;;;;;;0.70;0.70;;;;;;;17.03;47.36;99927.09;5094167;28;20044;-66
2023/05/01 08:23:42;;;;;;;10.48;1.05;;;;;;;17.28;47.85;99927.34;5093673;28;20036;-66
2023/05/01 08:26:10;;;;;;;0.60;0.60;;;;;;;17.41;47.52;99921.03;5075681;28;20126;-66
2023/05/01 08:28:41;;;;;;;1.10;1.02;;;;;;;17.33;46.36;99913.47;5092673;28;20143;-65
2023/05/01 08:31:11;;;;;;;0.70;0.70;;;;;;;17.38;46.50;99916.78;5093711;28;20059;-65
2023/05/01 08:33:41;;;;;;;0.73;0.73;;;;;;;17.31;46.20;99917.81;5093995;28;20048;-66
2023/05/01 08:36:11;;;;;;;1.13;1.02;;;;;;;17.44;46.55;99901.13;5094054;28;20047;-65
2023/05/01 08:38:40;;;;;;;0.70;0.70;;;;;;;17.64;46.18;99912.72;5093837;28;20044;-65
2023/05/01 08:41:09;;;;;;;1.05;0.95;;;;;;;17.65;45.93;99915.28;5093570;28;20098;-65
2023/05/01 08:43:39;;;;;;;;;;;;;;;17.69;46.04;99906.56;5094281;28;20044;-65
2023/05/01 08:46:13;;;;;;;1.20;1.10;;;;;;;17.85;46.06;99917.34;5093532;28;19920;-65
2023/05/01 08:48:44;;;;;;;0.60;0.60;;;;;;;17.90;46.46;99910.34;5093608;28;20146;-65
2023/05/01 08:51:18;;;;;;;1.08;0.95;;;;;;;18.08;46.65;99907.25;5093642;28;20512;-65
2023/05/01 08:53:51;;;;;;;0.60;0.60;;;;;;;18.26;47.61;99918.81;5093449;28;20066;-66
2023/05/01 08:56:22;;;;;;;2.70;1.85;;;;;;;18.51;47.80;99907.75;5094322;28;20060;-65
2023/05/01 08:58:56;;;;;;;1.05;0.95;;;;;;;18.80;48.96;99911.19;5097950;28;20456;-66
2023/05/01 09:01:31;;;;;;;1.00;0.95;;;;;;;18.68;47.70;99912.41;5097518;28;20075;-65
2023/05/01 09:04:02;;;;;;;1.20;1.10;;;;;;;18.52;47.14;99909.41;5097444;28;20135;-65
2023/05/01 09:06:32;;;;;;;0.60;0.60;;;;;;;18.43;46.82;99907.06;5097536;28;20048;-65
2023/05/01 09:09:01;;;;;;;0.93;0.68;;;;;;;18.26;46.35;99904.13;5097345;28;20114;-65
2023/05/01 09:11:30;;;;;;;1.15;0.98;;;;;;;18.24;46.00;99895.56;5097335;28;20127;-65
2023/05/01 09:14:04;;;;;;;0.77;0.77;;;;;;;18.35;46.02;99903.88;5097196;28;20482;-65
2023/05/01 09:16:34;;;;;;;3.40;1.20;;;;;;;18.42;45.93;99892.47;5097228;28;20131;-65
2023/05/01 09:19:04;;;;;;;0.70;0.70;;;;;;;18.66;46.23;99896.97;5097141;28;20051;-65
2023/05/01 09:21:32;;;;;;;0.50;0.50;;;;;;;18.89;46.10;99890.22;5097378;28;20085;-66
2023/05/01 09:24:02;;;;;;;0.77;0.73;;;;;;;19.20;46.66;99893.53;5097095;28;20047;-65
2023/05/01 09:26:33;;;;;;;0.55;0.55;;;;;;;19.11;45.67;99880.88;5097085;28;20052;-65
2023/05/01 09:29:01;;;;;;;0.70;0.70;;;;;;;19.14;45.74;99880.78;5097387;28;20151;-65
2023/05/01 09:31:31;;;;;;;0.60;0.60;;;;;;;19.14;45.06;99885.97;5096843;28;20043;-65
2023/05/01 09:34:03;;;;;;;0.80;0.80;;;;;;;19.27;44.48;99890.69;5097195;28;20063;-65
2023/05/01 09:36:35;;;;;;;2.00;1.17;;;;;;;19.24;44.18;99880.44;5096869;28;20048;-65
2023/05/01 09:39:04;;;;;;;1.20;0.98;;;;;;;19.26;44.64;99880.41;5097022;28;20490;-66
2023/05/01 09:41:33;;;;;;;0.60;0.60;;;;;;;19.32;44.92;99881.03;5096768;28;20040;-65
2023/05/01 09:44:02;;;;;;;0.60;0.60;;;;;;;19.37;45.07;99879.19;5096947;28;20040;-66
2023/05/01 09:46:42;;;;;;;0.70;0.70;;;;;;;19.45;45.00;99881.50;5096685;28;20131;-65
2023/05/01 09:49:13;;;;;;;0.50;0.50;;;;;;;19.55;44.71;99882.06;5096943;28;20555;-66
2023/05/01 09:51:42;;;;;;;1.48;1.08;;;;;;;19.62;45.08;99874.03;5096961;28;20059;-65
2023/05/01 09:54:19;;;;;;;1.65;1.23;;;;;;;19.89;45.15;99870.44;5096494;28;20044;-65
2023/05/01 09:56:48;;;;;;;1.08;0.93;;;;;;;20.05;45.36;99874.19;5096421;28;20055;-65
2023/05/01 09:59:19;;;;;;;1.45;0.93;;;;;;;20.32;45.54;99871.53;5096327;28;20044;-65
2023/05/01 10:01:49;;;;;;;0.60;0.60;;;;;;;20.39;44.83;99868.66;5096419;28;20131;-66
2023/05/01 10:04:30;;;;;;;1.15;0.95;;;;;;;20.43;44.57;99874.56;5096325;28;20048;-66
2023/05/01 10:07:00;;;;;;;0.98;0.82;;;;;;;20.00;43.69;99873.53;5096273;28;20128;-65
2023/05/01 10:09:31;;;;;;;3.13;0.70;;;;;;;19.68;43.52;99855.66;5095046;28;20048;-65
2023/05/01 10:12:00;;;;;;;0.50;0.50;;;;;;;19.96;43.88;99858.97;5096234;28;20044;-65
2023/05/01 10:14:29;;;;;;;1.20;1.10;;;;;;;20.30;44.11;99861.19;5096155;28;20044;-66
2023/05/01 10:16:58;;;;;;;0.63;0.63;;;;;;;20.25;43.86;99865.72;5096025;28;20047;-66
2023/05/01 10:19:28;;;;;;;0.85;0.85;;;;;;;20.11;43.06;99851.56;5095854;28;20054;-64
2023/05/01 10:21:59;;;;;;;1.85;1.30;;;;;;;19.98;43.63;99857.19;5096079;28;20056;-66
2023/05/01 10:24:27;;;;;;;1.08;0.98;;;;;;;20.18;43.28;99853.84;5096257;28;20520;-66
2023/05/01 10:26:57;;;;;;;0.40;0.40;;;;;;;20.12;43.15;99854.09;5095741;28;20531;-66
2023/05/01 10:29:30;;;;;;;0.43;0.43;;;;;;;20.17;42.83;99857.34;5096527;28;20066;-65
2023/05/01 10:32:00;;;;;;;0.40;0.40;;;;;;;20.30;42.91;99842.22;5095735;28;20048;-68
2023/05/01 10:34:35;;;;;;;0.50;0.50;;;;;;;20.26;43.00;99845.81;5095746;28;20052;-67
2023/05/01 10:37:11;;;;;;;1.02;0.93;;;;;;;20.11;42.55;99841.19;5095491;28;20044;-65
2023/05/01 10:39:40;;;;;;;0.47;0.47;;;;;;;20.08;42.54;99842.97;5095529;28;20044;-67
2023/05/01 10:42:13;;;;;;;0.50;0.50;;;;;;;20.10;42.63;99829.13;5095875;28;20062;-66
2023/05/01 10:44:42;;;;;;;0.68;0.68;;;;;;;20.37;43.20;99828.13;5095588;28;20517;-67
2023/05/01 10:47:43;;;;;;;0.60;0.60;;;;;;;20.58;43.61;99816.91;5095649;28;20040;-67
2023/05/01 10:50:14;;;;;;;0.52;0.52;;;;;;;20.66;43.27;99810.50;5095427;28;20048;-67
2023/05/01 10:53:04;;;;;;;0.70;0.70;;;;;;;20.65;42.73;99810.59;5095410;28;20055;-66
2023/05/01 10:55:34;;;;;;;;;;;;;;;20.75;42.66;99811.91;5096118;28;20044;-65
2023/05/01 10:58:03;;;;;;;0.98;0.93;;;;;;;20.77;42.61;99814.44;5095321;28;19956;-66
2023/05/01 11:00:33;;;;;;;0.70;0.70;;;;;;;20.82;42.86;99813.34;5095179;28;20063;-65
2023/05/01 11:03:27;;;;;;;0.77;0.77;;;;;;;20.89;42.85;99817.41;5095729;28;20044;-65
2023/05/01 11:06:09;;;;;;;0.88;0.82;;;;;;;20.81;42.53;99803.88;5085553;28;20048;-66
2023/05/01 11:08:39;;;;;;;0.88;0.82;;;;;;;20.81;43.00;99790.91;5094235;28;20052;-66
2023/05/01 11:11:33;;;;;;;0.63;0.63;;;;;;;21.02;42.88;99800.41;5093649;28;20052;-66
2023/05/01 11:14:02;;;;;;;0.60;0.60;;;;;;;21.01;43.12;99797.88;5084246;28;20066;-66
2023/05/01 11:16:45;;;;;;;0.65;0.55;;;;;;;21.18;43.18;99798.91;5095035;28;20044;-67
2023/05/01 11:19:49;;;;;;;0.40;0.40;;;;;;;21.22;42.71;99784.88;5094585;28;20040;-67
2023/05/01 11:22:19;;;;;;;0.77;0.68;;;;;;;20.99;42.28;99777.19;5091121;28;20072;-66
2023/05/01 11:24:48;;;;;;;1.02;0.98;;;;;;;20.98;42.86;99780.69;5094675;28;20052;-66
2023/05/01 11:27:18;;;;;;;0.50;0.50;;;;;;;21.05;42.56;99784.72;5094688;28;20067;-68
2023/05/01 11:29:49;;;;;;;0.57;0.33;;;;;;;21.23;42.29;99776.19;5094773;28;20430;-68
2023/05/01 11:32:23;;;;;;;0.50;0.50;;;;;;;21.14;42.03;99767.94;5094896;28;20543;-66
2023/05/01 11:34:53;;;;;;;0.80;0.80;;;;;;;21.27;42.18;99776.88;5094623;28;20494;-66
2023/05/01 11:37:43;;;;;;;0.70;0.70;;;;;;;21.38;42.32;99773.84;5094588;28;20044;-67
2023/05/01 11:40:22;;;;;;;1.05;0.90;;;;;;;21.45;41.96;99773.47;5095014;28;20437;-66
2023/05/01 11:43:00;;;;;;;0.60;0.60;;;;;;;21.53;41.57;99762.75;5094793;28;20566;-67
2023/05/01 11:45:30;;;;;;;0.50;0.50;;;;;;;21.65;41.81;99757.03;5093776;28;20398;-65
2023/05/01 11:47:59;;;;;;;1.55;1.10;;;;;;;21.85;41.44;99759.63;5093121;28;20051;-64
2023/05/01 11:50:34;;;;;;;0.43;0.43;;;;;;;21.81;40.91;99752.84;5094568;28;20189;-65
2023/05/01 11:53:11;;;;;;;0.90;0.82;;;;;;;21.65;41.20;99757.88;5094551;28;20063;-66
2023/05/01 11:55:40;;;;;;;0.50;0.50;;;;;;;21.77;41.08;99752.13;5094220;28;20502;-64
2023/05/01 11:58:09;;;;;;;0.80;0.70;;;;;;;21.68;40.66;99762.94;5094195;28;20047;-67
2023/05/01 12:00:40;;;;;;;0.60;0.60;;;;;;;21.67;41.01;99750.84;5094314;28;20064;-66